createdAt,value
2022-09-10T00:04:33.470Z,14.63
2022-09-10T00:09:35.221Z,14.63
2022-09-10T00:14:36.863Z,14.68
2022-09-10T00:19:38.548Z,14.78
2022-09-10T00:24:40.128Z,14.87
2022-09-10T00:29:41.705Z,15.03
2022-09-10T00:34:43.288Z,15.18
2022-09-10T00:39:44.897Z,15.34
2022-09-10T00:44:46.462Z,15.26
2022-09-10T00:49:52.505Z,15.28
2022-09-10T00:54:54.883Z,15.17
2022-09-10T01:00:03.359Z,15.15
2022-09-10T01:05:07.111Z,15.24
2022-09-10T01:10:13.629Z,15.46
2022-09-10T01:15:48.805Z,15.53
2022-09-10T01:20:57.210Z,15.43
2022-09-10T01:26:21.790Z,15.13
2022-09-10T01:31:54.646Z,14.95
2022-09-10T01:37:04.095Z,14.85
2022-09-10T01:42:06.693Z,14.83
2022-09-10T01:47:50.238Z,14.74
2022-09-10T01:53:10.958Z,14.72
2022-09-10T01:58:34.689Z,14.77
2022-09-10T02:03:45.563Z,14.74
2022-09-10T02:08:52.300Z,14.92
2022-09-10T02:13:54.033Z,14.45
2022-09-10T02:19:05.430Z,14.13
2022-09-10T02:24:11.418Z,13.97
2022-09-10T02:29:15.321Z,13.88
2022-09-10T02:34:17.728Z,13.81
2022-09-10T02:39:21.838Z,13.74
2022-09-10T02:44:23.385Z,13.68
2022-09-10T02:49:24.963Z,13.84
2022-09-10T02:54:26.512Z,14.17
2022-09-10T02:59:29.170Z,14.10
2022-09-10T03:04:32.053Z,13.59
2022-09-10T03:09:35.637Z,13.53
2022-09-10T03:14:37.410Z,13.46
2022-09-10T03:19:40.076Z,13.61
2022-09-10T03:24:42.014Z,13.40
2022-09-10T03:29:44.386Z,13.37
2022-09-10T03:34:49.419Z,13.27
2022-09-10T03:39:52.635Z,13.22
2022-09-10T03:44:56.312Z,13.33
2022-09-10T03:49:59.784Z,13.46
2022-09-10T03:55:01.469Z,13.67
2022-09-10T04:00:05.256Z,13.55
2022-09-10T04:05:16.777Z,13.52
2022-09-10T04:10:20.855Z,13.62
2022-09-10T04:15:24.761Z,13.29
2022-09-10T04:20:28.329Z,13.08
2022-09-10T04:25:38.028Z,13.05
2022-09-10T04:30:40.339Z,13.31
2022-09-10T04:35:43.641Z,13.12
2022-09-10T04:40:47.646Z,13.10
2022-09-10T04:45:50.043Z,12.84
2022-09-10T04:51:14.791Z,12.86
2022-09-10T04:56:15.037Z,12.88
2022-09-10T05:01:17.435Z,12.73
2022-09-10T05:06:21.277Z,12.70
2022-09-10T05:11:25.470Z,12.71
2022-09-10T05:16:28.549Z,13.00
2022-09-10T05:21:31.266Z,13.00
2022-09-10T05:26:33.175Z,13.08
2022-09-10T05:31:35.584Z,13.10
2022-09-10T05:36:37.690Z,13.12
2022-09-10T05:41:39.583Z,13.17
2022-09-10T05:46:42.518Z,13.29
2022-09-10T05:51:48.167Z,13.40
2022-09-10T05:56:51.324Z,14.08
2022-09-10T06:01:53.557Z,15.81
2022-09-10T06:06:56.908Z,16.39
2022-09-10T06:11:58.645Z,16.49
2022-09-10T06:17:01.377Z,16.91
2022-09-10T06:22:06.938Z,16.76
2022-09-10T06:27:14.328Z,16.23
2022-09-10T06:32:18.752Z,16.60
2022-09-10T06:37:24.156Z,16.66
2022-09-10T06:42:26.657Z,16.95
2022-09-10T06:53:15.097Z,17.18
2022-09-10T06:58:22.230Z,17.07
2022-09-10T07:03:25.768Z,17.44
2022-09-10T07:08:28.387Z,17.48
2022-09-10T07:13:31.835Z,17.61
2022-09-10T07:18:35.261Z,18.06
2022-09-10T07:23:39.247Z,18.15
2022-09-10T07:28:44.764Z,18.46
2022-09-10T07:33:48.167Z,18.13
2022-09-10T07:38:57.559Z,18.12
2022-09-10T07:44:00.040Z,17.92
2022-09-10T07:49:06.881Z,18.03
2022-09-10T07:54:08.567Z,17.88
2022-09-10T07:59:17.263Z,17.96
2022-09-10T08:04:23.506Z,17.86
2022-09-10T08:09:27.777Z,18.07
2022-09-10T08:14:31.646Z,18.39
2022-09-10T08:19:34.135Z,18.53
2022-09-10T08:24:36.758Z,18.42
2022-09-10T08:29:39.650Z,18.69
2022-09-10T08:34:43.546Z,18.84
2022-09-10T08:39:46.644Z,19.00
2022-09-10T08:44:58.791Z,18.83
2022-09-10T08:50:23.472Z,18.77
2022-09-10T08:55:33.760Z,18.89
2022-09-10T09:00:39.825Z,18.79
2022-09-10T09:05:49.517Z,18.68
2022-09-10T09:11:13.178Z,19.16
2022-09-10T09:16:17.785Z,19.73
2022-09-10T09:21:34.100Z,20.03
2022-09-10T09:26:36.931Z,19.87
2022-09-10T09:31:49.626Z,19.90
2022-09-10T09:36:55.877Z,19.77
2022-09-10T09:42:21.296Z,19.68
2022-09-10T09:47:24.263Z,19.71
2022-09-10T09:52:32.430Z,19.88
2022-09-10T09:57:34.136Z,20.38
2022-09-10T10:02:36.811Z,21.72
2022-09-10T10:07:39.036Z,21.94
2022-09-10T10:12:49.436Z,22.61
2022-09-10T10:17:51.566Z,22.58
2022-09-10T10:22:53.137Z,22.53
2022-09-10T10:27:54.835Z,22.50
2022-09-10T10:32:59.523Z,22.62
2022-09-10T10:38:07.428Z,23.08
2022-09-10T10:43:42.219Z,24.03
2022-09-10T10:49:17.618Z,23.32
2022-09-10T10:54:19.162Z,22.34
2022-09-10T10:59:28.655Z,21.67
2022-09-10T11:04:48.813Z,20.94
2022-09-10T11:10:03.920Z,21.79
2022-09-10T11:15:37.516Z,22.70
2022-09-10T11:20:47.302Z,22.55
2022-09-10T11:26:03.761Z,21.80
2022-09-10T11:31:15.579Z,21.10
2022-09-10T11:36:42.901Z,21.08
2022-09-10T11:41:47.671Z,21.40
2022-09-10T11:47:25.221Z,22.41
2022-09-10T11:52:30.108Z,22.40
2022-09-10T11:57:49.102Z,21.15
2022-09-10T12:03:27.203Z,20.73
2022-09-10T12:08:36.744Z,20.56
2022-09-10T12:13:41.704Z,20.38
2022-09-10T12:18:47.933Z,20.75
2022-09-10T12:23:51.116Z,20.59
2022-09-10T12:28:52.656Z,20.43
2022-09-10T12:33:54.232Z,20.59
2022-09-10T12:39:22.597Z,20.62
2022-09-10T12:44:36.401Z,20.40
2022-09-10T12:49:51.855Z,20.55
2022-09-10T12:55:11.904Z,20.99
2022-09-10T13:00:18.288Z,21.26
2022-09-10T13:05:29.223Z,21.60
2022-09-10T13:10:31.465Z,21.49
2022-09-10T13:15:38.070Z,21.19
2022-09-10T13:20:40.276Z,21.21
2022-09-10T13:25:44.775Z,20.87
2022-09-10T13:30:46.879Z,20.72
2022-09-10T13:36:30.079Z,20.87
2022-09-10T13:42:15.103Z,20.64
2022-09-10T13:47:22.529Z,20.93
2022-09-10T13:52:46.302Z,20.66
2022-09-10T13:57:54.743Z,20.58
2022-09-10T14:03:01.344Z,20.35
2022-09-10T14:08:53.908Z,20.59
2022-09-10T14:14:09.675Z,20.83
2022-09-10T14:19:27.812Z,20.66
2022-09-10T14:24:50.576Z,20.79
2022-09-10T14:29:56.921Z,20.84
2022-09-10T14:34:59.443Z,20.62
2022-09-10T14:40:14.450Z,20.41
2022-09-10T14:45:37.911Z,20.37
2022-09-10T14:50:39.498Z,20.58
2022-09-10T14:55:41.550Z,20.64
2022-09-10T15:00:43.116Z,20.62
2022-09-10T15:05:46.093Z,20.47
2022-09-10T15:10:50.256Z,20.46
2022-09-10T15:15:53.783Z,20.07
2022-09-10T15:20:55.364Z,19.69
2022-09-10T15:25:58.121Z,19.62
2022-09-10T15:30:59.768Z,19.34
2022-09-10T15:36:01.916Z,19.23
2022-09-10T15:41:12.995Z,19.16
2022-09-10T15:46:17.106Z,19.23
2022-09-10T15:51:21.483Z,19.04
2022-09-10T15:56:27.088Z,19.07
2022-09-10T16:01:29.266Z,18.97
2022-09-10T16:06:37.712Z,19.05
2022-09-10T16:11:42.323Z,19.11
2022-09-10T16:16:43.893Z,19.02
2022-09-10T16:21:45.856Z,18.90
2022-09-10T16:26:49.135Z,18.98
2022-09-10T16:31:50.746Z,18.79
2022-09-10T16:36:53.003Z,18.70
2022-09-10T16:41:56.039Z,18.98
2022-09-10T16:46:59.314Z,18.59
2022-09-10T16:52:00.880Z,18.62
2022-09-10T16:57:02.517Z,18.31
2022-09-10T17:02:05.405Z,18.23
2022-09-10T17:07:07.055Z,18.37
2022-09-10T17:12:10.499Z,17.98
2022-09-10T17:17:12.595Z,18.05
2022-09-10T17:22:14.062Z,17.76
2022-09-10T17:27:15.563Z,17.72
2022-09-10T17:32:17.071Z,17.57
2022-09-10T17:37:19.772Z,17.45
2022-09-10T17:42:21.291Z,17.81
2022-09-10T17:47:23.129Z,17.69
2022-09-10T17:52:25.779Z,17.32
2022-09-10T17:57:27.284Z,17.02
2022-09-10T18:02:29.039Z,17.11
2022-09-10T18:07:31.157Z,16.83
2022-09-10T18:12:32.748Z,16.56
2022-09-10T18:17:34.269Z,16.55
2022-09-10T18:22:35.750Z,16.60
2022-09-10T18:27:37.755Z,16.44
2022-09-10T18:32:39.366Z,16.68
2022-09-10T18:37:40.830Z,16.67
2022-09-10T18:42:46.140Z,16.15
2022-09-10T18:47:48.304Z,15.86
2022-09-10T18:52:49.866Z,15.94
2022-09-10T18:57:51.348Z,15.99
2022-09-10T19:10:02.492Z,16.12
2022-09-10T19:21:41.609Z,16.10
2022-09-10T19:26:46.726Z,16.00
2022-09-10T19:33:01.321Z,15.77
2022-09-10T19:38:15.799Z,15.70
2022-09-10T19:43:25.057Z,15.67
2022-09-10T19:48:26.669Z,15.68
2022-09-10T19:53:28.491Z,15.74
2022-09-10T19:58:30.168Z,15.73
2022-09-10T20:03:32.045Z,15.89
2022-09-10T20:08:35.180Z,15.95
2022-09-10T20:13:37.200Z,16.11
2022-09-10T20:18:39.072Z,16.22
2022-09-10T20:23:43.413Z,16.46
2022-09-10T20:28:49.988Z,16.61
2022-09-10T20:34:03.090Z,16.51
2022-09-10T20:39:12.038Z,16.39
2022-09-10T20:44:16.722Z,16.37
2022-09-10T20:49:18.631Z,16.26
2022-09-10T20:54:20.237Z,16.62
2022-09-10T20:59:27.700Z,16.43
2022-09-10T21:04:29.554Z,16.42
2022-09-10T21:09:31.362Z,16.33
2022-09-10T21:14:33.307Z,16.05
2022-09-10T21:19:34.849Z,16.10
2022-09-10T21:24:36.410Z,15.96
2022-09-10T21:29:37.965Z,15.86
2022-09-10T21:34:40.328Z,15.99
2022-09-10T21:39:41.885Z,16.02
2022-09-10T21:44:43.527Z,16.05
2022-09-10T21:49:45.088Z,16.29
2022-09-10T21:54:46.773Z,16.19
2022-09-10T21:59:48.802Z,16.23
2022-09-10T22:04:50.345Z,16.17
2022-09-10T22:09:51.865Z,16.07
2022-09-10T22:14:53.759Z,16.10
2022-09-10T22:19:55.414Z,15.94
2022-09-10T22:24:56.918Z,15.94
2022-09-10T22:29:59.027Z,15.78
2022-09-10T22:35:00.593Z,15.66
2022-09-10T22:40:02.796Z,15.46
2022-09-10T22:45:04.916Z,15.38
2022-09-10T22:50:06.565Z,15.30
2022-09-10T22:55:08.682Z,15.48
2022-09-10T23:00:13.659Z,15.32
2022-09-10T23:05:15.344Z,15.36
2022-09-10T23:10:18.047Z,15.34
2022-09-10T23:15:19.582Z,15.50
2022-09-10T23:20:21.277Z,15.62
2022-09-10T23:25:22.869Z,15.62
2022-09-10T23:30:24.456Z,15.48
2022-09-10T23:35:26.164Z,15.43
2022-09-10T23:40:32.282Z,15.31
2022-09-10T23:45:35.895Z,15.29
2022-09-10T23:50:37.417Z,15.24
2022-09-10T23:55:40.120Z,15.38
